Time;durP1;ratioP1;P1;durP2;ratioP2;P2;SDS_P1;SDS_P2;PMS_P1;PMS_P2;Temp;Humidity;BMP_temperature;BMP_pressure;BME280_temperature;BME280_humidity;BME280_pressure;Samples;Min_cycle;Max_cycle;Signal;HPM_P1;HPM_P2
2023/01/27 00:02:19;;;;;;;35.13;17.83;;;;;;;-1.43;100.00;98951.28;4891654;29;20678;-60
2023/01/27 00:04:46;;;;;;;42.43;19.03;;;;;;;-1.49;100.00;98942.94;4889350;29;20238;-60
2023/01/27 00:07:13;;;;;;;35.70;17.50;;;;;;;-1.51;100.00;98942.19;4885926;28;20265;-60
2023/01/27 00:09:40;;;;;;;39.50;17.37;;;;;;;-1.54;100.00;98944.06;4902187;29;20304;-60
2023/01/27 00:14:57;;;;;;;32.43;15.97;;;;;;;-1.53;100.00;98948.28;4877373;29;20227;-60
2023/01/27 00:17:23;;;;;;;35.20;16.90;;;;;;;-1.50;100.00;98943.84;4891560;29;20304;-61
2023/01/27 00:19:50;;;;;;;34.90;17.03;;;;;;;-1.54;100.00;98947.44;4888069;29;20234;-60
2023/01/27 00:25:01;;;;;;;27.10;13.73;;;;;;;-1.46;100.00;98952.25;4889214;29;20264;-59
2023/01/27 00:27:27;;;;;;;22.83;10.77;;;;;;;-1.48;99.70;98948.94;4893148;29;20241;-61
2023/01/27 00:29:54;;;;;;;16.93;8.30;;;;;;;-1.43;94.98;98947.00;4889437;29;20602;-61
2023/01/27 00:35:08;;;;;;;14.73;7.57;;;;;;;-1.40;91.35;98946.00;4889621;28;20346;-61
2023/01/27 00:37:35;;;;;;;13.57;6.93;;;;;;;-1.50;92.04;98951.53;4889760;29;20237;-61
2023/01/27 00:40:06;;;;;;;31.47;12.43;;;;;;;-1.58;95.99;98947.66;4890114;29;20239;-60
2023/01/27 00:42:33;;;;;;;30.13;13.47;;;;;;;-1.55;95.50;98943.22;4890833;29;20240;-61
2023/01/27 00:47:53;;;;;;;32.10;14.83;;;;;;;-1.61;99.04;98937.53;4879263;29;20230;-59
2023/01/27 00:50:20;;;;;;;27.47;12.87;;;;;;;-1.58;99.79;98945.09;4900645;29;20265;-62
2023/01/27 00:52:47;;;;;;;23.27;11.37;;;;;;;-1.58;98.37;98942.53;4899642;29;20237;-61
2023/01/27 00:55:14;;;;;;;16.17;7.77;;;;;;;-1.56;94.78;98938.19;4891060;29;20275;-60
2023/01/27 00:57:41;;;;;;;13.77;7.00;;;;;;;-1.65;92.13;98930.00;4896853;29;20230;-61
2023/01/27 01:00:10;;;;;;;12.30;6.37;;;;;;;-1.56;92.92;98933.88;4891079;29;20237;-60
2023/01/27 01:02:37;;;;;;;10.87;5.40;;;;;;;-1.57;90.25;98936.53;4898590;29;20241;-62
2023/01/27 01:05:05;;;;;;;12.50;6.47;;;;;;;-1.52;90.26;98929.47;4892547;29;20316;-61
2023/01/27 01:07:32;;;;;;;11.77;6.03;;;;;;;-1.53;89.81;98935.50;4897383;29;20239;-61
2023/01/27 01:09:59;;;;;;;11.27;6.33;;;;;;;-1.53;89.59;98927.81;4892676;29;20314;-61
2023/01/27 01:12:25;;;;;;;14.37;6.80;;;;;;;-1.54;89.93;98936.38;4893426;29;20241;-61
2023/01/27 01:14:52;;;;;;;10.50;5.57;;;;;;;-1.47;90.07;98940.34;4890689;28;20244;-60
2023/01/27 01:17:18;;;;;;;9.70;5.87;;;;;;;-1.49;90.06;98934.47;4893914;29;20238;-61
2023/01/27 01:19:45;;;;;;;10.47;5.60;;;;;;;-1.42;89.22;98940.13;4895464;29;20234;-61
2023/01/27 01:22:13;;;;;;;15.33;6.40;;;;;;;-1.46;88.28;98931.75;4892133;29;20802;-60
2023/01/27 01:24:41;;;;;;;13.53;6.40;;;;;;;-1.54;88.71;98929.53;4898935;29;20233;-60
2023/01/27 01:27:07;;;;;;;12.43;6.30;;;;;;;-1.55;88.71;98938.09;4894488;29;20835;-61
2023/01/27 01:29:34;;;;;;;13.33;7.63;;;;;;;-1.58;89.31;98942.53;4895354;29;20233;-61
2023/01/27 01:32:01;;;;;;;21.40;10.60;;;;;;;-1.59;91.48;98934.00;4894488;29;20617;-61
2023/01/27 01:34:27;;;;;;;17.63;8.87;;;;;;;-1.53;92.70;98932.94;4896816;29;20233;-61
2023/01/27 01:36:54;;;;;;;14.03;7.30;;;;;;;-1.57;88.83;98932.22;4882283;29;20231;-60
2023/01/27 01:39:22;;;;;;;13.90;7.50;;;;;;;-1.59;87.71;98923.78;4895867;29;20286;-61
2023/01/27 01:41:50;;;;;;;13.53;6.87;;;;;;;-1.58;87.54;98916.94;4894721;29;20295;-61
2023/01/27 01:44:21;;;;;;;13.57;7.23;;;;;;;-1.61;87.46;98917.06;4892857;29;20252;-61
2023/01/27 01:46:48;;;;;;;13.07;6.70;;;;;;;-1.77;87.02;98911.78;4891810;29;20727;-61
2023/01/27 01:49:17;;;;;;;15.07;7.97;;;;;;;-1.70;87.80;98908.06;4894795;29;20741;-61
2023/01/27 01:51:46;;;;;;;17.03;7.30;;;;;;;-1.79;87.20;98907.56;4894484;29;20239;-61
2023/01/27 01:54:16;;;;;;;11.30;6.13;;;;;;;-1.81;86.99;98905.97;4890865;29;20228;-61
2023/01/27 01:56:47;;;;;;;14.10;7.60;;;;;;;-1.80;86.69;98905.91;4891889;29;20223;-60
2023/01/27 01:59:19;;;;;;;13.70;7.73;;;;;;;-1.83;86.66;98907.75;4910458;29;20767;-61
2023/01/27 02:01:46;;;;;;;14.50;7.40;;;;;;;-1.78;87.27;98903.25;4893173;29;20651;-61
2023/01/27 02:04:17;;;;;;;13.17;7.40;;;;;;;-1.87;86.53;98893.41;4892103;29;20843;-61
2023/01/27 02:06:50;;;;;;;14.00;7.30;;;;;;;-1.81;87.15;98893.16;4894652;29;20217;-61
2023/01/27 02:09:18;;;;;;;15.57;7.87;;;;;;;-1.87;87.65;98890.88;4911797;29;20237;-61
2023/01/27 02:11:47;;;;;;;19.07;8.20;;;;;;;-1.91;88.26;98885.06;4893656;29;20237;-60
2023/01/27 02:14:17;;;;;;;15.97;7.87;;;;;;;-1.94;88.71;98888.56;4895264;29;20250;-61
2023/01/27 02:16:44;;;;;;;15.52;10.00;;;;;;;-1.94;88.69;98895.41;4891940;29;20454;-61
2023/01/27 02:19:19;;;;;;;16.97;8.87;;;;;;;-1.99;87.99;98887.94;4893070;29;20306;-62
2023/01/27 02:21:49;;;;;;;17.37;8.83;;;;;;;-1.95;88.06;98898.88;4894070;29;20613;-61
2023/01/27 02:24:16;;;;;;;15.87;8.20;;;;;;;-2.00;88.05;98893.13;4891752;29;20261;-62
2023/01/27 02:26:44;;;;;;;17.87;8.60;;;;;;;-2.00;88.87;98900.78;4897490;29;20243;-61
2023/01/27 02:29:13;;;;;;;16.30;8.13;;;;;;;-2.04;88.53;98907.75;4888717;29;21757;-61
2023/01/27 02:31:40;;;;;;;15.63;7.67;;;;;;;-2.04;88.43;98897.53;4892625;29;20234;-61
2023/01/27 02:34:10;;;;;;;15.77;8.27;;;;;;;-2.00;88.45;98903.34;4891452;29;20286;-62
2023/01/27 02:36:42;;;;;;;16.40;7.73;;;;;;;-2.04;88.49;98909.50;4897160;29;20721;-62
2023/01/27 02:39:11;;;;;;;16.97;9.27;;;;;;;-2.00;89.69;98909.28;4897985;29;20722;-61
2023/01/27 02:41:42;;;;;;;18.07;8.50;;;;;;;-2.02;88.71;98898.28;4911023;29;20234;-62
2023/01/27 02:44:12;;;;;;;19.17;8.27;;;;;;;-1.97;88.82;98898.94;4905741;29;20242;-62
2023/01/27 02:46:39;;;;;;;21.97;9.27;;;;;;;-2.01;89.90;98896.56;4893641;29;20312;-62
2023/01/27 02:49:07;;;;;;;17.93;9.00;;;;;;;-1.94;89.58;98895.41;4889426;29;20239;-62
2023/01/27 02:51:34;;;;;;;18.07;9.07;;;;;;;-1.97;89.42;98895.56;4894768;29;20267;-62
2023/01/27 02:54:02;;;;;;;16.93;9.03;;;;;;;-1.95;89.03;98896.31;4901841;29;20801;-62
2023/01/27 02:56:28;;;;;;;19.00;9.50;;;;;;;-2.01;89.65;98894.03;4913983;29;20649;-62
2023/01/27 02:58:57;;;;;;;17.70;8.97;;;;;;;-2.04;90.05;98892.41;4894369;29;20238;-63
2023/01/27 03:01:31;;;;;;;19.63;9.23;;;;;;;-2.00;90.41;98891.38;4899548;29;20239;-63
2023/01/27 03:03:59;;;;;;;16.43;8.53;;;;;;;-2.02;90.74;98890.63;4894262;29;20583;-62
2023/01/27 03:06:26;;;;;;;17.60;9.10;;;;;;;-2.00;90.13;98883.72;4904603;29;20239;-62
2023/01/27 03:08:53;;;;;;;18.60;9.27;;;;;;;-1.97;90.03;98887.88;4896423;29;20226;-62
2023/01/27 03:14:03;;;;;;;17.07;8.80;;;;;;;-2.01;89.32;98897.41;4892808;29;20282;-62
2023/01/27 03:19:16;;;;;;;16.37;8.97;;;;;;;-1.94;88.63;98898.78;4913294;29;20241;-62
2023/01/27 03:21:44;;;;;;;17.10;8.63;;;;;;;-2.05;89.02;98890.75;4902900;29;20236;-62
2023/01/27 03:24:12;;;;;;;16.63;8.90;;;;;;;-2.05;89.45;98895.03;4895062;29;20736;-62
2023/01/27 03:26:39;;;;;;;17.03;8.83;;;;;;;-2.11;90.09;98891.00;4897840;29;20305;-62
2023/01/27 03:31:53;;;;;;;18.27;9.03;;;;;;;-2.07;89.08;98887.41;4879898;29;20734;-62
2023/01/27 03:34:21;;;;;;;16.60;8.73;;;;;;;-2.08;89.49;98894.28;4900722;29;20310;-62
2023/01/27 03:47:51;;;;;;;17.30;9.20;;;;;;;-2.00;90.48;98895.69;4897616;29;20231;-61
2023/01/27 03:50:18;;;;;;;14.50;8.63;;;;;;;-2.03;91.45;98895.81;4896920;29;20286;-62
2023/01/27 03:53:01;;;;;;;16.43;8.33;;;;;;;-2.05;91.91;98900.97;4898797;29;20234;-62
2023/01/27 03:55:29;;;;;;;18.03;8.83;;;;;;;-2.03;91.71;98901.75;4901239;29;20304;-61
2023/01/27 03:57:55;;;;;;;16.63;8.70;;;;;;;-2.01;91.75;98902.50;4896430;29;20699;-62
2023/01/27 04:00:22;;;;;;;17.83;9.10;;;;;;;-2.00;91.39;98901.63;4899740;29;20254;-62
2023/01/27 04:08:16;;;;;;;18.93;9.43;;;;;;;-2.01;93.92;98910.19;4917992;29;20234;-57
2023/01/27 04:11:53;;;;;;;16.40;8.97;;;;;;;-2.00;94.32;98921.25;4923476;29;20241;-57
2023/01/27 04:13:28;;;;;;;15.83;8.23;;;;;;;-1.97;90.69;98919.41;4915494;29;20250;-56
2023/01/27 04:15:55;;;;;;;15.90;8.57;;;;;;;-1.99;89.71;98917.81;4909480;29;20321;-57
2023/01/27 04:18:21;;;;;;;18.90;8.77;;;;;;;-1.97;89.86;98921.94;4909873;29;20249;-57
2023/01/27 04:20:49;;;;;;;19.40;9.67;;;;;;;-2.02;89.87;98921.31;4909369;29;20243;-55
2023/01/27 04:23:16;;;;;;;15.17;8.50;;;;;;;-2.08;89.69;98914.75;4907461;29;20235;-55
2023/01/27 04:25:42;;;;;;;15.00;8.47;;;;;;;-2.03;90.68;98913.72;4908262;29;20323;-55
2023/01/27 04:28:14;;;;;;;17.03;9.43;;;;;;;-2.04;90.17;98915.44;4906363;29;20234;-55
2023/01/27 04:30:41;;;;;;;16.00;8.00;;;;;;;-2.07;91.12;98915.56;5104031;23;20321;-57
2023/01/27 04:33:09;;;;;;;19.10;9.83;;;;;;;-2.08;90.38;98914.75;4916065;29;20239;-57
2023/01/27 04:35:36;;;;;;;20.37;9.77;;;;;;;-2.16;90.83;98914.22;4923226;29;20759;-54
2023/01/27 04:38:04;;;;;;;19.37;8.87;;;;;;;-2.13;91.47;98918.41;4918568;29;20637;-55
2023/01/27 04:40:31;;;;;;;19.97;9.07;;;;;;;-2.15;92.12;98925.31;4920891;29;20293;-56
2023/01/27 04:42:57;;;;;;;17.47;8.63;;;;;;;-2.13;91.27;98933.75;4912212;29;20244;-57
2023/01/27 04:45:24;;;;;;;20.20;9.63;;;;;;;-2.06;91.05;98932.56;4932749;23;20232;-54
2023/01/27 04:47:51;;;;;;;15.73;9.00;;;;;;;-2.04;90.68;98935.06;4923893;28;20646;-54
2023/01/27 04:50:17;;;;;;;16.83;8.80;;;;;;;-2.03;90.02;98929.88;4929916;28;20241;-56
2023/01/27 04:52:44;;;;;;;16.90;8.13;;;;;;;-2.01;90.12;98940.88;4917422;29;20257;-55
2023/01/27 04:55:12;;;;;;;17.67;9.23;;;;;;;-1.98;89.57;98935.63;4930321;29;20304;-54
2023/01/27 04:57:39;;;;;;;21.30;9.73;;;;;;;-1.91;87.93;98936.22;4918259;29;20240;-52
2023/01/27 05:00:07;;;;;;;19.27;9.50;;;;;;;-1.93;88.03;98933.72;4912525;29;20224;-54
2023/01/27 05:02:33;;;;;;;18.47;9.07;;;;;;;-1.88;89.36;98935.25;4912571;29;20248;-55
2023/01/27 05:05:03;;;;;;;18.20;9.73;;;;;;;-1.88;89.73;98933.53;4915846;29;20895;-54
2023/01/27 05:07:30;;;;;;;19.73;9.47;;;;;;;-1.91;89.53;98927.72;4917423;29;20836;-54
2023/01/27 05:09:56;;;;;;;19.83;9.80;;;;;;;-1.88;90.25;98925.88;4912927;29;20239;-56
2023/01/27 05:12:25;;;;;;;22.30;10.03;;;;;;;-1.86;89.08;98931.75;4916309;29;20250;-54
2023/01/27 05:14:51;;;;;;;17.87;9.30;;;;;;;-1.86;89.31;98926.63;4913228;29;20755;-53
2023/01/27 05:17:18;;;;;;;18.77;9.97;;;;;;;-1.84;90.36;98926.56;4914513;29;20238;-55
2023/01/27 05:19:44;;;;;;;17.87;9.00;;;;;;;-1.81;90.17;98932.38;4917114;29;20307;-55
2023/01/27 05:22:11;;;;;;;19.40;9.10;;;;;;;-1.72;89.82;98935.47;4913320;29;20253;-55
2023/01/27 05:24:38;;;;;;;17.00;8.50;;;;;;;-1.72;88.42;98935.47;4916028;29;20282;-55
2023/01/27 05:27:04;;;;;;;19.27;9.47;;;;;;;-1.68;89.35;98932.69;4912886;29;20693;-55
2023/01/27 05:29:32;;;;;;;22.50;9.70;;;;;;;-1.67;90.24;98931.78;4916967;29;20237;-56
2023/01/27 05:31:59;;;;;;;18.77;9.43;;;;;;;-1.65;90.31;98931.75;4915671;29;20237;-53
2023/01/27 05:34:25;;;;;;;19.60;10.10;;;;;;;-1.61;89.46;98943.50;4921461;29;20294;-54
2023/01/27 05:36:52;;;;;;;14.97;8.20;;;;;;;-1.57;88.91;98944.19;4916614;29;20274;-55
2023/01/27 05:39:18;;;;;;;19.00;9.63;;;;;;;-1.58;89.24;98942.53;4918101;29;20296;-55
2023/01/27 05:41:45;;;;;;;19.77;9.47;;;;;;;-1.51;88.49;98943.94;4921517;29;20242;-53
2023/01/27 05:44:12;;;;;;;16.73;8.87;;;;;;;-1.54;88.53;98952.56;4919968;29;20733;-56
2023/01/27 05:46:41;;;;;;;20.70;10.67;;;;;;;-1.49;88.65;98960.88;4918678;29;20642;-55
2023/01/27 05:49:08;;;;;;;17.67;8.47;;;;;;;-1.52;89.72;98955.88;4916288;29;20237;-55
2023/01/27 05:51:38;;;;;;;17.13;8.73;;;;;;;-1.50;90.07;98955.84;4919960;29;20233;-55
2023/01/27 05:54:05;;;;;;;16.50;8.20;;;;;;;-1.51;90.27;98962.66;4913600;29;20337;-55
2023/01/27 05:56:32;;;;;;;18.30;9.77;;;;;;;-1.52;90.34;98971.25;4917550;29;20235;-55
2023/01/27 05:58:59;;;;;;;16.13;8.53;;;;;;;-1.47;89.11;98963.38;4916720;29;20769;-55
2023/01/27 06:01:28;;;;;;;12.20;6.90;;;;;;;-1.42;88.99;98963.19;4916795;29;20294;-54
2023/01/27 06:03:56;;;;;;;15.77;8.50;;;;;;;-1.44;89.27;98962.41;4916228;29;20928;-55
2023/01/27 06:06:24;;;;;;;15.43;8.30;;;;;;;-1.43;88.86;98962.34;4917538;29;20238;-56
2023/01/27 06:08:51;;;;;;;17.47;9.20;;;;;;;-1.39;89.57;98958.78;4916483;29;20233;-56
2023/01/27 06:11:19;;;;;;;15.10;7.50;;;;;;;-1.39;89.40;98969.00;4919118;29;20245;-55
2023/01/27 06:13:47;;;;;;;21.80;9.87;;;;;;;-1.36;88.00;98968.03;4919707;29;20327;-55
2023/01/27 06:16:16;;;;;;;15.03;6.90;;;;;;;-1.40;87.43;98964.78;4915310;29;20236;-55
2023/01/27 06:18:43;;;;;;;13.17;7.50;;;;;;;-1.38;87.01;98957.03;4917788;29;20650;-56
2023/01/27 06:21:13;;;;;;;14.73;7.27;;;;;;;-1.27;86.38;98947.16;4915702;29;20248;-55
2023/01/27 06:23:40;;;;;;;13.03;7.50;;;;;;;-1.29;86.15;98959.19;4921118;29;20293;-54
2023/01/27 06:26:09;;;;;;;14.60;7.40;;;;;;;-1.39;87.07;98960.47;4915072;29;20241;-55
2023/01/27 06:28:35;;;;;;;17.47;8.07;;;;;;;-1.35;87.65;98965.41;4917382;29;20230;-56
2023/01/27 06:31:06;;;;;;;16.97;8.60;;;;;;;-1.39;87.54;98958.78;4919209;29;20309;-55
2023/01/27 06:33:33;;;;;;;13.27;7.13;;;;;;;-1.32;88.00;98963.63;4920069;29;20483;-56
2023/01/27 06:36:04;;;;;;;65.47;33.77;;;;;;;-1.33;87.87;98967.91;4917131;29;20698;-56
2023/01/27 06:38:32;;;;;;;16.40;8.57;;;;;;;-1.36;87.60;98968.03;4918728;29;20642;-53
2023/01/27 06:41:00;;;;;;;13.20;7.30;;;;;;;-1.36;87.68;98975.72;4918063;29;20233;-57
2023/01/27 06:43:26;;;;;;;13.70;7.00;;;;;;;-1.37;86.33;98981.72;4918325;29;20230;-57
2023/01/27 06:45:54;;;;;;;15.97;7.93;;;;;;;-1.37;86.75;98981.72;4917476;29;20719;-56
2023/01/27 06:48:20;;;;;;;12.10;6.57;;;;;;;-1.32;88.36;98991.78;4918084;29;20247;-54
2023/01/27 06:50:47;;;;;;;14.90;6.87;;;;;;;-1.25;87.11;98991.44;4916518;29;20656;-56
2023/01/27 06:53:14;;;;;;;8.00;3.50;;;;;;;-1.38;86.52;98987.75;4916559;29;20769;-56
2023/01/27 06:55:42;;;;;;;12.67;6.63;;;;;;;-1.40;86.82;98987.00;4919130;29;20235;-56
2023/01/27 06:58:09;;;;;;;12.87;6.63;;;;;;;-1.36;86.70;98975.72;4913265;29;20244;-55
2023/01/27 07:00:36;;;;;;;13.27;6.67;;;;;;;-1.38;87.14;98980.91;4917163;29;20283;-56
2023/01/27 07:03:03;;;;;;;14.18;8.45;;;;;;;-1.31;86.62;98983.22;4914587;29;20446;-53
2023/01/27 07:05:31;;;;;;;13.27;6.73;;;;;;;-1.36;87.08;98994.50;4922462;29;20237;-52
2023/01/27 07:07:57;;;;;;;15.40;7.20;;;;;;;-1.32;87.24;98995.16;4913774;29;20794;-55
2023/01/27 07:10:24;;;;;;;14.23;7.40;;;;;;;-1.28;86.90;99003.56;4916558;29;20838;-53
2023/01/27 07:12:51;;;;;;;13.27;7.20;;;;;;;-1.26;87.38;98997.47;4916770;29;20246;-54
2023/01/27 07:15:18;;;;;;;12.87;7.30;;;;;;;-1.21;85.70;99008.34;4917498;29;20236;-54
2023/01/27 07:17:45;;;;;;;15.27;8.17;;;;;;;-1.29;86.50;99005.28;4915868;29;20233;-53
2023/01/27 07:20:13;;;;;;;14.73;7.53;;;;;;;-1.28;87.26;99008.69;4915878;29;20242;-53
2023/01/27 07:22:39;;;;;;;15.17;7.20;;;;;;;-1.27;88.22;99010.34;4918424;29;20244;-55
2023/01/27 07:25:07;;;;;;;18.63;9.80;;;;;;;-1.29;87.81;99007.84;4915791;29;20238;-56
2023/01/27 07:27:33;;;;;;;14.37;7.43;;;;;;;-1.17;86.71;99003.94;4920050;29;20292;-53
2023/01/27 07:30:01;;;;;;;28.33;16.10;;;;;;;-1.20;86.52;99009.19;4913763;29;20240;-56
2023/01/27 07:32:28;;;;;;;15.97;8.83;;;;;;;-1.12;85.07;99007.13;4918507;29;20245;-53
2023/01/27 07:34:55;;;;;;;15.50;8.20;;;;;;;-1.22;85.25;99001.56;4913866;29;20240;-53
2023/01/27 07:37:21;;;;;;;14.27;7.73;;;;;;;-1.20;85.60;99011.75;4916999;29;20241;-55
2023/01/27 07:39:48;;;;;;;15.60;8.07;;;;;;;-1.15;85.51;99024.34;4918130;29;20286;-55
2023/01/27 07:42:15;;;;;;;43.63;25.37;;;;;;;-1.25;86.29;99031.63;4916006;29;20240;-55
2023/01/27 07:44:41;;;;;;;16.20;8.67;;;;;;;-1.22;86.23;99031.47;4916509;29;20755;-52
2023/01/27 07:47:09;;;;;;;14.63;7.70;;;;;;;-1.18;86.95;99038.13;4912367;29;21004;-54
2023/01/27 07:49:36;;;;;;;13.77;7.87;;;;;;;-1.19;87.30;99039.84;4918065;29;20237;-55
2023/01/27 07:52:02;;;;;;;15.43;8.57;;;;;;;-1.11;87.23;99044.66;4914109;29;20237;-56
2023/01/27 07:54:29;;;;;;;19.60;11.83;;;;;;;-1.22;85.89;99044.28;4919201;29;20244;-54
2023/01/27 07:56:55;;;;;;;16.33;8.50;;;;;;;-1.25;86.76;99040.13;4915801;29;20282;-55
2023/01/27 07:59:22;;;;;;;18.60;9.37;;;;;;;-1.21;86.20;99041.66;4914812;29;20305;-55
2023/01/27 08:01:48;;;;;;;16.87;8.30;;;;;;;-1.14;86.39;99051.63;4916995;29;20238;-52
2023/01/27 08:04:17;;;;;;;20.47;9.17;;;;;;;-1.07;86.47;99047.91;4914444;29;20293;-55
2023/01/27 08:06:43;;;;;;;21.13;10.43;;;;;;;-1.08;87.09;99048.81;4915212;29;20269;-54
2023/01/27 08:09:10;;;;;;;19.77;9.63;;;;;;;-1.06;87.15;99050.38;4913771;29;20620;-55
2023/01/27 08:11:37;;;;;;;19.47;9.50;;;;;;;-1.05;86.70;99059.75;4913939;29;20294;-55
2023/01/27 08:14:03;;;;;;;20.73;10.20;;;;;;;-1.07;87.41;99056.44;4915855;29;20297;-55
2023/01/27 08:16:30;;;;;;;20.60;10.40;;;;;;;-0.94;87.27;99050.75;4916258;29;20235;-54
2023/01/27 08:18:56;;;;;;;22.70;11.87;;;;;;;-0.94;87.62;99053.31;4912401;29;20239;-54
2023/01/27 08:21:26;;;;;;;19.27;10.43;;;;;;;-0.80;86.89;99060.41;4915157;29;20629;-55
2023/01/27 08:23:54;;;;;;;20.73;10.87;;;;;;;-0.79;87.22;99064.66;4912371;29;20236;-52
2023/01/27 08:26:21;;;;;;;22.27;10.77;;;;;;;-0.83;87.63;99074.19;4915254;29;20244;-54
2023/01/27 08:28:47;;;;;;;19.47;10.10;;;;;;;-1.04;87.75;99069.09;4916186;29;20252;-53
2023/01/27 08:31:16;;;;;;;19.40;10.80;;;;;;;-0.90;89.30;99067.66;4914294;29;20236;-55
2023/01/27 08:33:44;;;;;;;10.60;4.73;;;;;;;-1.11;87.48;99074.56;4914949;29;20229;-55
2023/01/27 08:36:13;;;;;;;22.20;10.10;;;;;;;-0.98;86.78;99073.13;4911605;29;20712;-54
2023/01/27 08:38:42;;;;;;;19.67;11.13;;;;;;;-1.02;88.03;99081.84;4917576;29;20239;-55
2023/01/27 08:41:11;;;;;;;23.67;11.57;;;;;;;-1.04;88.27;99071.66;4913152;29;20246;-55
2023/01/27 08:43:37;;;;;;;17.70;8.80;;;;;;;-0.97;87.06;99067.13;4915979;29;20619;-54
2023/01/27 08:46:05;;;;;;;16.77;9.40;;;;;;;-0.96;86.88;99066.22;4913203;29;20243;-54
2023/01/27 08:48:32;;;;;;;15.70;8.97;;;;;;;-0.96;87.39;99076.47;4917895;29;20591;-56
2023/01/27 08:51:00;;;;;;;16.37;9.07;;;;;;;-0.92;86.68;99069.47;4910987;29;20260;-55
2023/01/27 08:53:28;;;;;;;18.70;9.40;;;;;;;-0.93;87.95;99062.66;4915078;29;20275;-53
2023/01/27 08:55:59;;;;;;;20.03;11.10;;;;;;;-0.83;87.37;99071.63;4915076;29;20234;-55
2023/01/27 08:58:26;;;;;;;110.97;68.97;;;;;;;-0.85;87.53;99070.03;4915900;29;20245;-54
2023/01/27 09:00:52;;;;;;;17.30;9.17;;;;;;;-0.83;86.71;99065.69;4911512;29;20584;-55
2023/01/27 09:03:19;;;;;;;27.93;18.30;;;;;;;-0.79;86.41;99069.78;4916691;29;20246;-53
2023/01/27 09:05:47;;;;;;;16.53;9.87;;;;;;;-0.75;86.08;99072.13;4916377;29;20246;-56
2023/01/27 09:08:14;;;;;;;19.00;9.33;;;;;;;-0.53;86.59;99070.34;4916830;29;20240;-54
2023/01/27 09:10:42;;;;;;;14.73;7.63;;;;;;;-0.42;83.56;99073.22;4920542;29;20358;-55
2023/01/27 09:13:10;;;;;;;14.57;7.73;;;;;;;-0.58;83.63;99072.28;4916995;29;20289;-55
2023/01/27 09:15:37;;;;;;;17.90;8.53;;;;;;;-0.41;84.14;99072.31;4918025;29;20241;-53
2023/01/27 09:18:04;;;;;;;14.80;8.00;;;;;;;-0.26;84.24;99080.22;4917559;29;20241;-55
2023/01/27 09:20:31;;;;;;;16.20;9.37;;;;;;;-0.16;83.19;99081.47;4917716;29;20789;-53
2023/01/27 09:22:58;;;;;;;16.53;8.37;;;;;;;-0.03;81.59;99085.13;4917267;29;20324;-54
2023/01/27 09:25:24;;;;;;;15.83;8.20;;;;;;;-0.12;80.58;99080.41;4919770;29;20577;-56
2023/01/27 09:27:54;;;;;;;16.30;8.60;;;;;;;-0.41;82.14;99081.78;4903257;28;20240;-59
2023/01/27 09:30:23;;;;;;;13.87;7.17;;;;;;;-0.29;82.53;99076.06;4910100;29;20222;-55
2023/01/27 09:32:50;;;;;;;15.00;7.97;;;;;;;-0.11;82.32;99078.69;4913081;29;20247;-54
2023/01/27 09:35:17;;;;;;;18.80;9.73;;;;;;;0.09;82.21;99088.81;4909877;29;20721;-55
2023/01/27 09:37:50;;;;;;;15.43;9.20;;;;;;;0.14;79.94;99089.44;4911992;29;20229;-54
2023/01/27 09:40:30;;;;;;;16.00;8.33;;;;;;;0.31;79.81;99092.13;4910221;28;20374;-52
2023/01/27 09:43:23;;;;;;;16.70;9.20;;;;;;;0.07;79.81;99106.03;4912083;29;20240;-55
2023/01/27 09:46:18;;;;;;;19.23;10.45;;;;;;;0.19;79.72;99103.78;4917505;29;20450;-55
2023/01/27 09:48:58;;;;;;;14.80;8.43;;;;;;;0.13;81.38;99102.38;4914382;29;20233;-55
2023/01/27 09:51:36;;;;;;;14.23;7.67;;;;;;;-0.19;80.49;99100.41;4915779;29;20672;-54
2023/01/27 09:54:19;;;;;;;15.57;8.03;;;;;;;-0.01;80.59;99098.72;4910799;29;20235;-53
2023/01/27 09:56:57;;;;;;;15.40;8.93;;;;;;;-0.28;82.01;99097.41;4912161;29;20234;-55
2023/01/27 09:59:42;;;;;;;19.40;10.10;;;;;;;-0.24;82.54;99101.50;4910248;29;20240;-55
2023/01/27 10:02:25;;;;;;;14.73;8.53;;;;;;;-0.11;82.58;99106.94;4910568;29;20662;-56
2023/01/27 10:05:16;;;;;;;15.00;8.33;;;;;;;-0.02;80.84;99098.81;4906434;29;20286;-53
2023/01/27 10:08:03;;;;;;;15.83;8.50;;;;;;;-0.31;81.37;99098.41;4912969;29;20237;-53
2023/01/27 10:10:45;;;;;;;17.13;8.63;;;;;;;-0.20;83.04;99095.34;4899496;29;20745;-52
2023/01/27 10:13:20;;;;;;;18.80;9.33;;;;;;;-0.20;82.44;99085.91;4910699;29;20753;-55
2023/01/27 10:16:03;;;;;;;18.33;8.47;;;;;;;-0.21;81.85;99094.50;4911470;29;20241;-53
2023/01/27 10:18:43;;;;;;;15.67;8.70;;;;;;;-0.02;82.80;99093.66;4908997;29;20230;-55
2023/01/27 10:21:15;;;;;;;16.67;8.70;;;;;;;0.26;80.33;99093.19;4905881;29;20550;-55
2023/01/27 10:23:54;;;;;;;16.10;8.37;;;;;;;0.19;80.46;99091.81;4909743;29;20237;-52
2023/01/27 10:26:27;;;;;;;15.63;8.67;;;;;;;0.16;80.95;99083.41;4907066;29;20880;-53
2023/01/27 10:29:00;;;;;;;14.63;8.40;;;;;;;0.09;80.40;99088.81;4909117;29;20245;-53
2023/01/27 10:31:34;;;;;;;15.37;8.37;;;;;;;0.48;78.94;99083.59;4911789;29;20246;-53
2023/01/27 10:34:09;;;;;;;15.40;8.80;;;;;;;0.18;79.46;99087.56;4907143;29;20261;-54
2023/01/27 10:36:46;;;;;;;17.80;8.67;;;;;;;0.40;78.99;99089.13;4909102;29;20248;-53
2023/01/27 10:39:21;;;;;;;20.90;8.20;;;;;;;0.24;80.50;99092.41;4909181;29;20237;-53
2023/01/27 10:41:58;;;;;;;19.03;10.73;;;;;;;0.14;79.76;99086.06;4909640;29;20239;-53
2023/01/27 10:44:43;;;;;;;14.60;8.57;;;;;;;0.39;79.02;99080.56;4909408;29;20242;-55
2023/01/27 10:47:19;;;;;;;15.47;8.37;;;;;;;0.58;77.50;99067.63;4908156;29;20237;-56
2023/01/27 10:49:50;;;;;;;17.90;9.03;;;;;;;0.55;78.14;99084.94;4910263;29;20249;-55
2023/01/27 10:52:21;;;;;;;16.07;9.03;;;;;;;0.51;78.84;99086.00;4909347;29;20297;-52
2023/01/27 10:54:52;;;;;;;14.73;8.27;;;;;;;0.39;78.43;99080.56;4911153;29;20300;-52
2023/01/27 10:57:25;;;;;;;16.27;8.83;;;;;;;0.51;78.77;99078.31;4911823;29;20713;-54
2023/01/27 10:59:58;;;;;;;14.87;8.13;;;;;;;0.36;79.12;99078.16;4907876;29;20666;-55
2023/01/27 11:02:32;;;;;;;17.80;9.50;;;;;;;0.63;78.72;99071.72;4908994;29;20238;-52
2023/01/27 11:05:02;;;;;;;15.17;8.60;;;;;;;0.58;78.00;99071.97;4907116;29;20230;-52
2023/01/27 11:07:32;;;;;;;14.93;7.97;;;;;;;0.28;79.40;99062.28;4909729;29;20239;-54
2023/01/27 11:10:02;;;;;;;21.20;11.20;;;;;;;0.41;79.86;99063.34;4907790;29;20241;-52
2023/01/27 11:12:33;;;;;;;19.87;10.07;;;;;;;0.57;78.62;99060.03;4912146;29;20238;-52
2023/01/27 11:15:02;;;;;;;27.03;17.20;;;;;;;0.11;80.84;99073.38;4906719;29;20233;-53
2023/01/27 11:17:32;;;;;;;19.83;11.27;;;;;;;0.43;79.14;99084.66;4907646;29;20240;-54
2023/01/27 11:20:12;;;;;;;21.97;13.63;;;;;;;0.34;80.02;99074.81;4905026;29;20721;-53
2023/01/27 11:22:59;;;;;;;16.13;9.17;;;;;;;0.43;79.06;99069.22;4908063;29;20337;-51
2023/01/27 11:25:29;;;;;;;15.93;9.30;;;;;;;0.57;78.70;99067.72;4905238;29;20720;-53
2023/01/27 11:28:05;;;;;;;15.97;8.90;;;;;;;0.16;79.82;99063.72;4905686;29;20315;-54
2023/01/27 11:30:36;;;;;;;22.47;13.33;;;;;;;0.13;81.34;99062.09;4912101;29;20288;-55
2023/01/27 11:33:10;;;;;;;15.73;8.00;;;;;;;0.13;79.82;99074.13;4905871;29;20253;-55
2023/01/27 11:35:38;;;;;;;16.20;8.33;;;;;;;0.39;78.99;99057.44;4911349;29;20627;-54
2023/01/27 11:38:05;;;;;;;14.50;8.70;;;;;;;0.86;77.02;99060.28;4907254;29;20234;-53
2023/01/27 11:40:33;;;;;;;15.50;7.13;;;;;;;0.40;78.30;99061.69;4910087;29;20715;-52
2023/01/27 11:43:02;;;;;;;12.77;6.87;;;;;;;0.17;79.97;99067.09;4910790;29;20643;-53
2023/01/27 11:45:34;;;;;;;14.97;8.53;;;;;;;0.36;79.02;99075.56;4908528;29;20601;-53
2023/01/27 11:48:05;;;;;;;17.93;9.27;;;;;;;0.43;78.94;99063.28;4910033;29;20245;-52
2023/01/27 11:50:36;;;;;;;15.07;7.87;;;;;;;0.37;78.97;99051.56;4908831;29;20246;-52
2023/01/27 11:53:14;;;;;;;16.57;9.00;;;;;;;0.80;77.74;99043.44;4906795;29;20246;-54
2023/01/27 11:55:43;;;;;;;13.97;7.90;;;;;;;1.13;77.14;99054.63;4910509;29;21148;-56
2023/01/27 11:58:19;;;;;;;14.40;8.07;;;;;;;1.32;74.30;99055.31;4904625;29;20232;-52
2023/01/27 12:00:50;;;;;;;16.47;8.80;;;;;;;1.14;74.98;99046.00;4909723;29;20248;-54
2023/01/27 12:03:22;;;;;;;13.83;7.73;;;;;;;0.82;75.80;99046.75;4906772;29;20258;-53
2023/01/27 12:05:54;;;;;;;17.00;8.07;;;;;;;0.84;76.21;99037.22;4910817;29;20279;-54
2023/01/27 12:08:40;;;;;;;18.10;9.83;;;;;;;0.78;77.25;99029.00;4905231;29;20695;-53
2023/01/27 12:11:22;;;;;;;19.47;9.63;;;;;;;0.55;77.51;99043.84;4912501;29;20288;-54